Time;durP1;ratioP1;P1;durP2;ratioP2;P2;SDS_P1;SDS_P2;PMS_P1;PMS_P2;Temp;Humidity;BMP_temperature;BMP_pressure;BME280_temperature;BME280_humidity;BME280_pressure;Samples;Min_cycle;Max_cycle;Signal;HPM_P1;HPM_P2
2023/12/31 00:01:33;;;;;;;4.78;2.90;;;6.00;99.90;;;;;;4938225;29;20272;-75
2023/12/31 00:03:59;;;;;;;6.40;3.10;;;5.90;99.90;;;;;;4939011;29;20182;-75
2023/12/31 00:06:26;;;;;;;6.10;3.03;;;5.90;99.90;;;;;;4938591;29;20208;-75
2023/12/31 00:08:51;;;;;;;4.53;3.05;;;5.90;99.90;;;;;;4938122;29;20219;-75
2023/12/31 00:11:17;;;;;;;3.38;3.08;;;5.80;99.90;;;;;;4937982;29;20182;-75
2023/12/31 00:13:42;;;;;;;4.85;3.17;;;5.80;99.90;;;;;;4938146;29;20213;-75
2023/12/31 00:16:12;;;;;;;8.02;3.30;;;5.80;99.90;;;;;;4938810;29;20197;-75
2023/12/31 00:19:12;;;;;;;7.28;3.25;;;5.80;99.90;;;;;;4938119;29;20178;-75
2023/12/31 00:21:42;;;;;;;5.05;3.92;;;5.80;99.90;;;;;;4939086;29;20173;-75
2023/12/31 00:24:07;;;;;;;11.48;5.45;;;5.80;99.90;;;;;;4938630;29;20169;-75
2023/12/31 00:26:33;;;;;;;9.27;4.97;;;5.80;99.90;;;;;;4938690;29;20292;-75
2023/12/31 00:28:59;;;;;;;10.10;6.53;;;5.80;99.90;;;;;;4937838;29;20212;-75
2023/12/31 00:31:27;;;;;;;11.10;6.22;;;5.80;99.90;;;;;;4940238;29;20189;-75
2023/12/31 00:33:56;;;;;;;8.73;4.95;;;5.80;99.90;;;;;;4941643;29;20272;-75
2023/12/31 00:36:28;;;;;;;9.55;5.88;;;5.80;99.90;;;;;;4941529;29;20205;-75
2023/12/31 00:39:00;;;;;;;45.25;24.30;;;5.80;99.90;;;;;;4941922;29;20176;-75
2023/12/31 00:41:26;;;;;;;42.20;23.08;;;5.80;99.90;;;;;;4941939;29;20169;-75
2023/12/31 00:43:52;;;;;;;48.75;32.50;;;5.80;99.90;;;;;;4941923;29;20177;-75
2023/12/31 00:46:17;;;;;;;16.05;11.48;;;5.80;99.90;;;;;;4940899;29;20206;-75
2023/12/31 00:49:32;;;;;;;20.88;13.30;;;5.80;99.90;;;;;;4941920;29;20313;-75
2023/12/31 00:51:57;;;;;;;13.65;8.23;;;5.80;99.90;;;;;;4941752;29;20657;-75
2023/12/31 00:54:23;;;;;;;12.00;7.38;;;6.00;99.90;;;;;;4942746;29;20233;-77
2023/12/31 00:56:48;;;;;;;8.60;6.05;;;6.00;99.90;;;;;;4943386;29;20205;-77
2023/12/31 00:59:14;;;;;;;6.75;5.10;;;6.00;99.90;;;;;;4942497;29;20169;-77
2023/12/31 01:01:40;;;;;;;7.13;4.25;;;5.90;99.90;;;;;;4942249;29;20178;-77
2023/12/31 01:04:05;;;;;;;6.05;3.67;;;5.90;99.90;;;;;;4959750;29;20185;-77
2023/12/31 01:06:40;;;;;;;6.78;3.88;;;5.90;99.90;;;;;;4942746;29;20257;-77
2023/12/31 01:09:06;;;;;;;4.97;3.20;;;6.00;99.90;;;;;;4942840;29;20177;-77
2023/12/31 01:11:34;;;;;;;11.82;8.10;;;6.00;99.90;;;;;;4942767;29;20189;-77
2023/12/31 01:13:59;;;;;;;18.17;12.30;;;6.00;99.90;;;;;;4941805;29;20228;-77
2023/12/31 01:16:25;;;;;;;8.15;6.35;;;5.90;99.90;;;;;;4942059;29;20194;-77
2023/12/31 01:18:51;;;;;;;16.02;9.02;;;5.90;99.90;;;;;;4942035;29;20182;-77
2023/12/31 01:21:18;;;;;;;40.05;17.90;;;5.90;99.90;;;;;;4941650;29;20178;-77
2023/12/31 01:23:43;;;;;;;32.83;15.18;;;5.80;99.90;;;;;;4941492;29;20196;-77
2023/12/31 01:26:09;;;;;;;28.25;14.27;;;5.70;99.90;;;;;;4958328;28;20194;-77
2023/12/31 01:28:34;;;;;;;53.83;25.53;;;5.60;99.90;;;;;;4944927;29;20297;-77
2023/12/31 01:31:00;;;;;;;66.80;32.67;;;5.60;99.90;;;;;;4946495;29;20190;-77
2023/12/31 01:33:26;;;;;;;76.50;39.40;;;5.70;99.90;;;;;;4947018;29;20658;-77
2023/12/31 01:35:51;;;;;;;53.90;28.30;;;5.70;99.90;;;;;;4946450;28;20184;-77
2023/12/31 01:38:17;;;;;;;33.97;19.02;;;5.80;99.90;;;;;;4963241;29;20264;-77
2023/12/31 01:40:54;;;;;;;13.63;7.93;;;5.80;99.90;;;;;;4946073;29;20276;-78
2023/12/31 01:43:20;;;;;;;5.60;3.95;;;5.90;99.90;;;;;;4945837;29;20177;-78
2023/12/31 01:45:46;;;;;;;5.20;3.25;;;6.00;99.90;;;;;;4946309;28;20178;-77
2023/12/31 01:48:13;;;;;;;4.80;3.05;;;5.90;99.90;;;;;;4945415;29;20193;-77
2023/12/31 01:50:39;;;;;;;4.20;2.90;;;6.00;99.90;;;;;;4946053;29;20216;-77
2023/12/31 01:53:06;;;;;;;7.68;4.00;;;6.00;99.90;;;;;;4946760;29;20198;-77
2023/12/31 01:55:32;;;;;;;5.95;3.70;;;6.00;99.90;;;;;;4946355;29;20209;-77
2023/12/31 01:57:58;;;;;;;5.53;3.88;;;6.00;99.90;;;;;;4943905;29;20205;-77
2023/12/31 02:20:54;;;;;;;6.57;4.68;;;6.10;99.90;;;;;;4955126;28;20683;-85
2023/12/31 02:23:20;;;;;;;5.55;4.22;;;6.00;99.90;;;;;;4939756;29;20181;-85
2023/12/31 02:26:09;;;;;;;6.13;3.67;;;6.00;99.90;;;;;;4939488;29;20281;-85
2023/12/31 02:28:35;;;;;;;5.38;3.63;;;6.00;99.90;;;;;;4955508;29;20297;-85
2023/12/31 02:31:00;;;;;;;4.70;3.35;;;5.90;99.90;;;;;;4939089;29;20188;-85
2023/12/31 02:33:29;;;;;;;4.35;3.08;;;5.70;99.90;;;;;;4939463;29;20683;-85
2023/12/31 02:35:55;;;;;;;4.60;3.08;;;5.60;99.90;;;;;;4939622;29;20185;-85
2023/12/31 02:38:20;;;;;;;7.78;3.10;;;5.50;99.90;;;;;;4939918;29;20225;-85
2023/12/31 02:40:46;;;;;;;6.03;3.10;;;5.40;99.90;;;;;;4939088;29;20272;-85
2023/12/31 02:43:11;;;;;;;3.05;2.72;;;5.20;99.90;;;;;;4939881;29;20235;-85
2023/12/31 02:45:37;;;;;;;6.13;2.88;;;5.10;99.90;;;;;;4939253;29;20181;-85
2023/12/31 02:48:03;;;;;;;3.42;2.97;;;5.10;99.90;;;;;;4939076;28;20209;-85
2023/12/31 02:50:31;;;;;;;5.95;3.00;;;5.00;99.90;;;;;;4938971;29;20232;-85
2023/12/31 02:52:56;;;;;;;6.70;3.10;;;4.90;99.90;;;;;;4938849;28;20178;-85
2023/12/31 02:55:22;;;;;;;4.10;2.97;;;4.80;99.90;;;;;;4938660;29;20189;-85
2023/12/31 02:57:48;;;;;;;4.03;3.13;;;4.70;99.90;;;;;;4938887;29;20188;-85
2023/12/31 03:00:14;;;;;;;4.30;3.20;;;4.70;99.90;;;;;;4938700;29;20208;-85
2023/12/31 03:02:40;;;;;;;4.80;3.20;;;4.70;99.90;;;;;;4938466;29;20190;-85
2023/12/31 03:05:10;;;;;;;4.23;3.13;;;4.60;99.90;;;;;;4939603;29;20177;-85
2023/12/31 03:07:36;;;;;;;4.77;3.30;;;4.60;99.90;;;;;;4938774;29;20181;-85
2023/12/31 03:10:01;;;;;;;4.03;3.50;;;4.50;99.90;;;;;;4938714;29;20208;-85
2023/12/31 03:12:27;;;;;;;3.93;3.30;;;4.50;99.90;;;;;;4938399;29;20185;-85
2023/12/31 03:14:55;;;;;;;4.90;3.67;;;4.40;99.90;;;;;;4938683;29;20263;-85
2023/12/31 03:17:21;;;;;;;5.40;3.20;;;4.40;99.90;;;;;;4938558;29;20185;-85
2023/12/31 03:19:46;;;;;;;6.07;3.90;;;4.40;99.90;;;;;;4938062;29;20754;-85
2023/12/31 03:22:12;;;;;;;5.47;3.70;;;4.30;99.90;;;;;;4938190;29;20289;-85
2023/12/31 03:24:37;;;;;;;3.93;3.40;;;4.30;99.90;;;;;;4938671;29;20186;-85
2023/12/31 03:27:03;;;;;;;4.60;3.60;;;4.20;99.90;;;;;;4938577;29;20240;-85
2023/12/31 03:29:29;;;;;;;6.67;4.37;;;4.20;99.90;;;;;;4938214;29;20240;-85
2023/12/31 03:31:54;;;;;;;6.70;4.37;;;4.20;99.90;;;;;;4938461;29;20178;-85
2023/12/31 03:34:20;;;;;;;7.47;4.07;;;4.30;99.90;;;;;;4938423;29;20201;-85
2023/12/31 03:36:46;;;;;;;6.07;4.10;;;4.30;99.90;;;;;;4938019;29;20178;-85
2023/12/31 03:39:14;;;;;;;6.00;4.60;;;4.30;99.90;;;;;;4938492;29;20204;-85
2023/12/31 03:41:40;;;;;;;6.47;4.53;;;4.20;99.90;;;;;;4938986;29;20189;-85
2023/12/31 03:44:05;;;;;;;6.30;4.50;;;4.30;99.90;;;;;;4938497;29;20668;-85
2023/12/31 03:46:31;;;;;;;7.93;4.87;;;4.30;99.90;;;;;;4938224;29;20178;-86
2023/12/31 03:48:56;;;;;;;5.97;4.70;;;4.40;99.90;;;;;;4937983;29;20579;-86
2023/12/31 03:51:22;;;;;;;7.47;4.80;;;4.40;99.90;;;;;;4938053;29;20189;-86
2023/12/31 03:53:48;;;;;;;7.93;5.13;;;4.50;99.90;;;;;;4937913;29;20292;-86
2023/12/31 03:56:13;;;;;;;9.30;4.93;;;4.40;99.90;;;;;;4938386;29;20240;-86
2023/12/31 03:58:39;;;;;;;6.30;4.20;;;4.40;99.90;;;;;;4938533;29;20334;-85
2023/12/31 04:01:05;;;;;;;7.77;4.53;;;4.40;99.90;;;;;;4938420;29;20188;-85
2023/12/31 04:03:31;;;;;;;7.33;4.80;;;4.30;99.90;;;;;;4939477;29;20221;-85
2023/12/31 04:05:56;;;;;;;9.10;4.63;;;4.30;99.90;;;;;;4940310;29;20181;-85
2023/12/31 04:08:23;;;;;;;5.17;4.60;;;4.20;99.90;;;;;;4941811;29;20212;-85
2023/12/31 04:10:49;;;;;;;6.50;4.80;;;4.20;99.90;;;;;;4941984;29;20193;-85
2023/12/31 04:13:17;;;;;;;5.60;4.57;;;4.10;99.90;;;;;;4941826;29;20679;-85
2023/12/31 04:15:42;;;;;;;7.57;4.67;;;3.90;99.90;;;;;;4942586;29;20182;-85
2023/12/31 04:18:08;;;;;;;8.53;4.70;;;3.80;99.90;;;;;;4941746;28;20197;-85
2023/12/31 04:20:33;;;;;;;7.97;5.20;;;3.70;99.90;;;;;;4941640;29;20205;-85
2023/12/31 04:22:59;;;;;;;7.03;5.27;;;3.70;99.90;;;;;;4942002;29;20229;-86
2023/12/31 04:25:25;;;;;;;9.87;5.87;;;3.60;99.90;;;;;;4942609;29;20240;-86
2023/12/31 04:27:51;;;;;;;10.87;7.60;;;3.50;99.90;;;;;;4942149;28;20187;-86
2023/12/31 04:30:18;;;;;;;8.50;6.73;;;3.50;99.90;;;;;;4941466;29;20201;-86
2023/12/31 04:32:44;;;;;;;7.93;5.83;;;3.50;99.90;;;;;;4941993;29;20188;-86
2023/12/31 04:35:10;;;;;;;6.27;5.60;;;3.60;99.90;;;;;;4941497;29;20194;-86
2023/12/31 04:37:36;;;;;;;8.70;5.50;;;3.60;99.90;;;;;;4941084;29;20208;-86
2023/12/31 04:40:02;;;;;;;8.10;5.57;;;3.70;99.90;;;;;;4941308;29;20201;-86
2023/12/31 04:42:27;;;;;;;7.70;5.40;;;3.80;99.90;;;;;;4941863;29;20594;-86
2023/12/31 04:44:53;;;;;;;6.77;5.37;;;3.70;99.90;;;;;;4941345;29;20186;-86
2023/12/31 04:47:20;;;;;;;9.17;5.53;;;3.70;99.90;;;;;;4940722;29;20235;-86
2023/12/31 04:49:45;;;;;;;7.73;5.23;;;3.70;99.90;;;;;;4940985;29;20680;-86
2023/12/31 04:52:11;;;;;;;7.37;5.67;;;3.70;99.90;;;;;;4940751;29;20190;-87
2023/12/31 04:54:38;;;;;;;7.17;5.50;;;3.80;99.90;;;;;;4940836;29;20209;-87
2023/12/31 04:57:04;;;;;;;8.27;5.90;;;3.70;99.90;;;;;;4941391;29;20181;-87
2023/12/31 04:59:30;;;;;;;7.43;5.63;;;3.70;99.90;;;;;;4940799;29;20224;-86
2023/12/31 05:01:55;;;;;;;5.90;5.30;;;3.80;99.90;;;;;;4941653;29;20182;-87
2023/12/31 05:04:21;;;;;;;7.47;5.90;;;3.80;99.90;;;;;;4940531;29;20189;-86
2023/12/31 05:06:47;;;;;;;13.93;10.20;;;3.70;99.90;;;;;;4940710;29;20189;-86
2023/12/31 05:09:12;;;;;;;17.10;10.07;;;3.70;99.90;;;;;;4940344;29;20227;-86
2023/12/31 05:11:38;;;;;;;9.07;7.50;;;3.70;99.90;;;;;;4940622;29;20186;-86
2023/12/31 05:14:04;;;;;;;12.67;8.10;;;3.60;99.90;;;;;;4940539;29;20212;-86
2023/12/31 05:16:31;;;;;;;6.90;5.90;;;3.70;99.90;;;;;;4939980;29;20186;-86
2023/12/31 05:18:58;;;;;;;9.33;6.20;;;3.70;99.90;;;;;;4940277;29;20288;-87
2023/12/31 05:21:24;;;;;;;6.57;5.43;;;3.70;99.90;;;;;;4941004;29;20197;-86
2023/12/31 05:23:50;;;;;;;6.33;5.27;;;3.70;99.90;;;;;;4940446;29;20260;-87
2023/12/31 05:26:16;;;;;;;8.17;5.80;;;3.70;99.90;;;;;;4940223;29;20189;-87
2023/12/31 05:28:42;;;;;;;8.53;5.50;;;3.80;99.90;;;;;;4940176;29;20643;-86
2023/12/31 05:31:08;;;;;;;7.03;5.80;;;3.80;99.90;;;;;;4940741;29;20272;-86
2023/12/31 05:33:33;;;;;;;8.43;5.60;;;3.70;99.90;;;;;;4940419;29;20236;-86
2023/12/31 05:35:59;;;;;;;5.57;4.73;;;3.80;99.90;;;;;;4940157;29;20268;-86
2023/12/31 05:38:25;;;;;;;5.60;5.07;;;3.80;99.90;;;;;;4939846;29;20198;-86
2023/12/31 05:40:50;;;;;;;5.60;5.00;;;3.90;99.90;;;;;;4940163;29;20182;-86
2023/12/31 05:43:16;;;;;;;6.30;5.10;;;4.00;99.90;;;;;;4939783;29;20177;-86
2023/12/31 05:45:42;;;;;;;8.60;5.50;;;4.00;99.90;;;;;;4939763;29;20217;-86
2023/12/31 05:48:08;;;;;;;6.67;5.50;;;4.00;99.90;;;;;;4939613;28;20186;-87
2023/12/31 05:50:33;;;;;;;8.13;5.10;;;4.00;99.90;;;;;;4939594;29;20185;-87
2023/12/31 05:52:59;;;;;;;8.67;5.57;;;3.90;99.90;;;;;;4939458;29;20197;-87
2023/12/31 05:55:25;;;;;;;5.70;5.20;;;3.90;99.90;;;;;;4939808;29;20184;-87
2023/12/31 05:57:50;;;;;;;5.47;4.97;;;3.80;99.90;;;;;;4939671;28;20660;-87
2023/12/31 06:00:16;;;;;;;9.17;5.67;;;3.80;99.90;;;;;;4939498;29;20241;-86
2023/12/31 06:02:42;;;;;;;6.67;5.47;;;3.70;99.90;;;;;;4939563;29;20178;-87
2023/12/31 06:05:08;;;;;;;7.40;5.50;;;3.60;99.90;;;;;;4939904;29;20281;-87
2023/12/31 06:07:34;;;;;;;6.30;5.60;;;3.50;99.90;;;;;;4939590;29;20190;-87
2023/12/31 06:10:00;;;;;;;6.43;5.77;;;3.50;99.90;;;;;;4939435;29;20205;-86
2023/12/31 06:12:26;;;;;;;8.10;5.80;;;3.40;99.90;;;;;;4939671;29;20192;-86
2023/12/31 06:14:51;;;;;;;5.43;4.93;;;3.30;99.90;;;;;;4939942;29;20244;-86
2023/12/31 06:17:17;;;;;;;6.33;4.90;;;3.10;99.90;;;;;;4939506;29;20185;-86
2023/12/31 06:19:43;;;;;;;6.20;5.60;;;3.00;99.90;;;;;;4938976;29;20217;-86
2023/12/31 06:22:08;;;;;;;5.37;4.93;;;2.90;99.90;;;;;;4938954;29;20189;-86
2023/12/31 06:24:34;;;;;;;6.77;5.53;;;3.00;99.90;;;;;;4939169;29;20671;-87
2023/12/31 06:27:00;;;;;;;6.40;5.47;;;2.80;99.90;;;;;;4939330;29;20182;-86
2023/12/31 06:29:26;;;;;;;8.37;6.30;;;2.80;99.90;;;;;;4938562;29;20295;-86
2023/12/31 06:31:52;;;;;;;7.30;5.60;;;2.80;99.90;;;;;;4938855;29;20272;-87
2023/12/31 06:34:17;;;;;;;7.87;6.90;;;2.90;99.90;;;;;;4939129;29;20260;-87
2023/12/31 06:36:46;;;;;;;8.07;6.77;;;2.90;99.90;;;;;;4939017;29;20228;-86
2023/12/31 06:39:12;;;;;;;6.80;6.10;;;2.80;99.90;;;;;;4939207;29;20292;-86
2023/12/31 06:41:37;;;;;;;7.17;6.27;;;2.80;99.90;;;;;;4938728;29;20272;-86
2023/12/31 06:44:03;;;;;;;8.10;6.10;;;2.80;99.90;;;;;;4938913;29;20244;-86
2023/12/31 06:46:29;;;;;;;7.60;6.10;;;2.90;99.90;;;;;;4938624;29;20193;-87
2023/12/31 06:48:56;;;;;;;8.63;6.50;;;3.10;99.90;;;;;;4938458;29;20205;-86
2023/12/31 06:51:22;;;;;;;6.53;5.70;;;3.20;99.90;;;;;;4938870;29;20216;-86
2023/12/31 06:53:47;;;;;;;7.10;6.40;;;3.30;99.90;;;;;;4938894;29;20240;-86
2023/12/31 06:56:13;;;;;;;7.97;5.93;;;3.50;99.90;;;;;;4939374;29;20181;-86
2023/12/31 06:58:38;;;;;;;10.13;6.00;;;3.60;99.90;;;;;;4938593;29;20197;-86
2023/12/31 07:01:05;;;;;;;6.97;5.60;;;3.70;99.90;;;;;;4938707;29;20181;-86
2023/12/31 07:03:31;;;;;;;7.07;6.03;;;3.80;99.90;;;;;;4938586;29;20186;-86
2023/12/31 07:05:57;;;;;;;7.50;6.00;;;3.80;99.90;;;;;;4939190;29;20201;-86
2023/12/31 07:08:22;;;;;;;7.40;5.90;;;3.70;99.90;;;;;;4938231;29;20614;-87
2023/12/31 07:10:50;;;;;;;6.37;5.77;;;3.70;99.90;;;;;;4938595;29;20276;-87
2023/12/31 07:13:16;;;;;;;6.37;5.67;;;3.60;99.90;;;;;;4938310;29;20216;-86
2023/12/31 07:15:43;;;;;;;5.90;5.30;;;3.60;99.90;;;;;;4938392;29;20182;-87
2023/12/31 07:18:09;;;;;;;6.80;5.57;;;3.60;99.90;;;;;;4938498;28;20552;-86
2023/12/31 07:20:35;;;;;;;6.47;5.73;;;3.60;99.90;;;;;;4938152;29;20279;-87
2023/12/31 07:23:00;;;;;;;6.63;5.93;;;3.60;99.90;;;;;;4938517;29;20277;-87
2023/12/31 07:25:28;;;;;;;6.97;5.40;;;3.60;99.90;;;;;;4938819;29;20189;-87
2023/12/31 07:27:54;;;;;;;6.63;5.90;;;3.60;99.90;;;;;;4938962;28;20232;-86
2023/12/31 07:30:20;;;;;;;6.50;5.80;;;3.60;99.90;;;;;;4938055;29;20192;-86
2023/12/31 07:32:46;;;;;;;8.37;7.47;;;3.60;99.90;;;;;;4938333;29;20178;-86
2023/12/31 07:35:11;;;;;;;6.80;6.10;;;3.50;99.90;;;;;;4938075;29;20209;-86
2023/12/31 07:37:40;;;;;;;8.13;6.77;;;3.50;99.90;;;;;;4938735;29;20209;-86
2023/12/31 07:40:07;;;;;;;8.90;7.20;;;3.50;99.90;;;;;;4939553;29;20228;-86
2023/12/31 07:42:34;;;;;;;7.63;6.83;;;3.40;99.90;;;;;;4942811;29;20245;-86
2023/12/31 07:44:59;;;;;;;7.90;7.10;;;3.40;99.90;;;;;;4941863;29;20272;-86
2023/12/31 07:47:25;;;;;;;10.77;7.83;;;3.50;99.90;;;;;;4941834;29;20204;-86
2023/12/31 07:49:51;;;;;;;8.77;6.50;;;3.60;99.90;;;;;;4942227;29;20197;-86
2023/12/31 07:52:17;;;;;;;7.97;6.13;;;3.60;99.90;;;;;;4942372;29;20181;-87
2023/12/31 07:54:43;;;;;;;9.83;7.67;;;3.70;99.90;;;;;;4942145;29;20683;-86
2023/12/31 07:57:11;;;;;;;7.97;5.97;;;3.80;99.90;;;;;;4941676;29;20181;-86
2023/12/31 07:59:38;;;;;;;9.63;6.23;;;3.90;99.90;;;;;;4941716;29;20251;-86
2023/12/31 08:02:04;;;;;;;10.10;9.00;;;3.90;99.90;;;;;;4942635;29;20245;-86
2023/12/31 08:04:29;;;;;;;8.77;7.60;;;3.90;99.90;;;;;;4941691;29;20251;-86
2023/12/31 08:06:55;;;;;;;6.57;5.63;;;4.00;99.90;;;;;;4941861;29;20229;-86
2023/12/31 08:09:20;;;;;;;8.40;6.00;;;4.00;99.90;;;;;;4942041;29;20201;-87
2023/12/31 08:11:46;;;;;;;6.47;5.80;;;4.00;99.90;;;;;;4941430;29;20186;-87
2023/12/31 08:14:12;;;;;;;6.93;5.73;;;4.00;99.90;;;;;;4941403;29;20213;-87
2023/12/31 08:16:38;;;;;;;6.43;5.40;;;4.10;99.90;;;;;;4941965;29;20174;-86
2023/12/31 08:19:04;;;;;;;10.17;7.70;;;4.10;99.90;;;;;;4941669;29;20342;-86
2023/12/31 08:21:30;;;;;;;6.53;5.83;;;4.10;99.90;;;;;;4942184;29;20626;-86
2023/12/31 08:23:56;;;;;;;6.40;5.43;;;4.10;99.90;;;;;;4941282;29;20232;-87
2023/12/31 08:26:22;;;;;;;7.67;6.33;;;4.20;99.90;;;;;;4941562;29;20190;-86
2023/12/31 08:28:47;;;;;;;7.30;6.17;;;4.20;99.90;;;;;;4958537;28;20209;-86
2023/12/31 08:31:14;;;;;;;25.93;13.93;;;4.20;99.90;;;;;;4941143;29;20185;-86
2023/12/31 08:33:40;;;;;;;8.17;6.93;;;4.20;99.90;;;;;;4941192;29;20315;-86
2023/12/31 08:36:05;;;;;;;6.63;6.03;;;4.30;99.90;;;;;;4940903;29;20213;-86
2023/12/31 08:38:31;;;;;;;8.50;5.80;;;4.20;99.90;;;;;;4941230;29;20209;-86
2023/12/31 08:40:57;;;;;;;7.30;6.43;;;4.20;99.90;;;;;;4941719;29;20181;-86
2023/12/31 08:43:23;;;;;;;8.57;6.50;;;4.20;99.90;;;;;;4940898;29;20223;-86
2023/12/31 08:45:49;;;;;;;6.57;5.97;;;4.30;99.90;;;;;;4940986;29;20611;-86
2023/12/31 08:48:17;;;;;;;7.83;7.03;;;4.30;99.90;;;;;;4940742;29;20201;-86
2023/12/31 08:50:43;;;;;;;6.83;6.23;;;4.30;99.90;;;;;;4940308;28;20189;-86
2023/12/31 08:53:09;;;;;;;7.37;6.37;;;4.40;99.90;;;;;;4940461;29;20272;-86
2023/12/31 08:55:34;;;;;;;8.00;7.20;;;4.40;99.90;;;;;;4940939;29;20272;-86
2023/12/31 08:58:00;;;;;;;8.07;6.77;;;4.40;99.90;;;;;;4940950;28;20185;-86
2023/12/31 09:00:25;;;;;;;7.57;6.03;;;4.30;99.90;;;;;;4941483;29;20177;-86
2023/12/31 09:02:51;;;;;;;6.80;6.20;;;4.30;99.90;;;;;;4940995;29;20269;-86
2023/12/31 09:05:17;;;;;;;8.60;5.87;;;4.40;99.90;;;;;;4940447;29;20178;-86
2023/12/31 09:07:42;;;;;;;8.13;7.27;;;4.40;99.90;;;;;;4940324;29;20174;-86
2023/12/31 09:10:08;;;;;;;10.47;8.73;;;4.50;99.90;;;;;;4940363;29;20197;-86
2023/12/31 09:12:34;;;;;;;7.83;6.60;;;4.50;99.90;;;;;;4940302;29;20683;-86
2023/12/31 09:14:59;;;;;;;9.37;7.17;;;4.60;99.90;;;;;;4940555;29;20213;-86
2023/12/31 09:17:25;;;;;;;16.47;13.60;;;4.60;99.90;;;;;;4940549;29;20178;-86
2023/12/31 09:19:54;;;;;;;14.33;12.00;;;4.60;99.90;;;;;;4940244;29;20213;-86
2023/12/31 09:22:19;;;;;;;20.40;15.90;;;4.60;99.90;;;;;;4940364;29;20530;-86
2023/12/31 09:24:45;;;;;;;12.73;10.17;;;4.70;99.90;;;;;;4940090;29;20220;-86
2023/12/31 09:27:12;;;;;;;51.50;35.07;;;4.70;99.90;;;;;;4940544;29;20551;-86
2023/12/31 09:29:38;;;;;;;15.87;10.80;;;4.80;99.90;;;;;;4940358;29;20202;-86
2023/12/31 09:32:03;;;;;;;17.40;15.47;;;4.80;99.90;;;;;;4940010;29;20185;-86
2023/12/31 09:34:29;;;;;;;34.37;31.17;;;4.80;99.90;;;;;;4940013;29;20213;-86
2023/12/31 09:36:55;;;;;;;9.50;8.60;;;4.90;99.90;;;;;;4957028;29;20181;-86
2023/12/31 09:39:20;;;;;;;8.67;6.30;;;4.90;99.90;;;;;;4939973;29;20208;-87
2023/12/31 09:41:52;;;;;;;10.43;7.07;;;5.00;99.90;;;;;;4939887;29;20188;-87
2023/12/31 09:44:19;;;;;;;8.17;7.17;;;5.00;99.90;;;;;;4940001;29;20182;-86
2023/12/31 09:47:01;;;;;;;8.93;6.80;;;5.20;99.90;;;;;;4940859;29;20268;-87
2023/12/31 09:49:26;;;;;;;6.50;5.85;;;5.20;99.90;;;;;;4940539;29;20212;-87
2023/12/31 09:51:53;;;;;;;6.80;5.93;;;5.30;99.90;;;;;;4940390;29;20268;-87
2023/12/31 09:54:21;;;;;;;7.90;7.00;;;5.30;99.90;;;;;;4939676;29;20643;-87
2023/12/31 09:56:50;;;;;;;10.73;6.73;;;5.40;99.90;;;;;;4939853;29;20220;-87
2023/12/31 09:59:17;;;;;;;7.57;6.87;;;5.50;99.90;;;;;;4939718;29;20198;-87
2023/12/31 10:01:44;;;;;;;11.02;6.65;;;5.50;99.90;;;;;;4940172;29;20253;-86
2023/12/31 10:04:11;;;;;;;7.72;6.25;;;5.60;99.90;;;;;;4938797;29;20189;-86
2023/12/31 10:06:38;;;;;;;7.45;6.38;;;5.70;99.90;;;;;;4939727;29;20173;-86
2023/12/31 10:09:07;;;;;;;8.57;6.63;;;5.80;99.90;;;;;;4939665;29;20224;-86
2023/12/31 10:11:34;;;;;;;7.70;6.88;;;5.90;99.90;;;;;;4939343;29;20186;-86
2023/12/31 10:14:00;;;;;;;9.48;6.90;;;5.90;99.90;;;;;;4939341;29;20640;-86
2023/12/31 10:16:36;;;;;;;10.77;7.53;;;5.80;99.90;;;;;;4956609;29;20178;-86
2023/12/31 10:19:03;;;;;;;8.30;7.13;;;5.70;99.90;;;;;;4939023;29;20216;-86
2023/12/31 10:21:29;;;;;;;8.68;6.82;;;5.80;99.90;;;;;;4939242;29;20181;-86
2023/12/31 10:23:58;;;;;;;7.25;6.32;;;5.90;99.90;;;;;;4940260;29;20236;-86
2023/12/31 10:26:24;;;;;;;7.20;6.50;;;6.00;99.90;;;;;;4939601;29;20680;-86
2023/12/31 10:28:49;;;;;;;6.80;6.10;;;6.00;99.90;;;;;;4940207;29;20229;-86
2023/12/31 10:31:15;;;;;;;7.97;7.18;;;6.10;99.90;;;;;;4939096;29;20216;-86
2023/12/31 10:33:41;;;;;;;11.27;7.10;;;6.00;99.90;;;;;;4939286;29;20679;-86
2023/12/31 10:36:07;;;;;;;21.27;17.27;;;6.10;99.90;;;;;;4939170;29;20182;-87
2023/12/31 10:38:53;;;;;;;12.38;10.45;;;6.00;99.90;;;;;;4939660;29;20240;-87
2023/12/31 10:41:22;;;;;;;30.33;21.98;;;6.00;99.90;;;;;;4939178;29;20204;-87
2023/12/31 10:43:49;;;;;;;10.90;8.85;;;6.00;99.90;;;;;;4939284;29;20544;-86
2023/12/31 10:46:17;;;;;;;7.78;6.97;;;6.10;99.90;;;;;;4939325;29;20212;-87
2023/12/31 10:49:01;;;;;;;11.85;8.65;;;6.10;99.90;;;;;;4939371;29;20262;-86
2023/12/31 10:51:27;;;;;;;11.15;8.77;;;6.40;99.90;;;;;;4939765;29;20208;-86
2023/12/31 10:54:04;;;;;;;9.70;7.68;;;6.60;99.90;;;;;;4939468;29;20213;-86
2023/12/31 10:56:32;;;;;;;17.05;9.20;;;6.50;99.90;;;;;;4939492;29;20174;-86
2023/12/31 10:58:58;;;;;;;13.02;7.75;;;6.30;99.90;;;;;;4939269;29;20205;-86
2023/12/31 11:01:25;;;;;;;15.13;11.25;;;6.30;99.90;;;;;;4939294;29;20180;-86
2023/12/31 11:03:56;;;;;;;11.80;10.57;;;6.30;99.90;;;;;;4938606;29;20189;-86
2023/12/31 11:06:23;;;;;;;21.02;18.75;;;6.30;99.90;;;;;;4938885;29;20303;-86
2023/12/31 11:08:49;;;;;;;13.18;11.40;;;6.30;99.90;;;;;;4938792;29;20205;-85
2023/12/31 11:11:16;;;;;;;8.75;7.38;;;6.30;99.90;;;;;;4938402;29;20181;-86
2023/12/31 11:13:46;;;;;;;10.05;8.57;;;6.40;99.90;;;;;;4938961;29;20208;-86
2023/12/31 11:16:40;;;;;;;15.60;12.13;;;6.60;99.90;;;;;;4938892;29;20621;-85
2023/12/31 11:19:17;;;;;;;13.52;9.93;;;6.80;99.90;;;;;;4938005;29;20213;-86
2023/12/31 11:22:05;;;;;;;84.50;55.67;;;6.70;99.90;;;;;;4938095;29;20182;-85
2023/12/31 11:24:31;;;;;;;145.07;100.72;;;6.70;99.90;;;;;;4938175;29;20186;-86
2023/12/31 11:27:15;;;;;;;65.45;47.45;;;6.80;99.90;;;;;;4938272;29;20562;-85
2023/12/31 11:29:46;;;;;;;102.93;72.95;;;6.90;99.90;;;;;;4938237;29;20292;-85
2023/12/31 11:32:14;;;;;;;17.75;15.05;;;7.10;99.90;;;;;;4938566;29;20590;-85
2023/12/31 11:34:40;;;;;;;12.52;11.23;;;7.10;99.90;;;;;;4938881;29;20221;-85
2023/12/31 11:37:09;;;;;;;13.32;11.13;;;7.20;99.90;;;;;;4923241;29;20222;-85
2023/12/31 11:39:34;;;;;;;14.63;12.38;;;7.10;99.90;;;;;;4938995;29;20318;-85
2023/12/31 11:42:11;;;;;;;10.85;9.30;;;7.20;99.90;;;;;;4938461;29;20208;-85
2023/12/31 11:44:40;;;;;;;7.28;6.40;;;7.20;99.90;;;;;;4938525;29;20181;-85
2023/12/31 11:47:16;;;;;;;9.85;6.72;;;7.20;99.90;;;;;;4938006;29;20193;-85
2023/12/31 11:49:46;;;;;;;11.93;8.40;;;7.20;99.90;;;;;;4938907;29;20205;-85
2023/12/31 11:52:12;;;;;;;9.38;6.93;;;7.10;99.90;;;;;;4937466;29;20633;-85
2023/12/31 11:54:39;;;;;;;7.13;6.50;;;7.10;99.90;;;;;;4936048;29;20208;-84
2023/12/31 11:57:06;;;;;;;7.63;6.82;;;7.20;99.90;;;;;;4936169;29;20182;-85
2023/12/31 11:59:39;;;;;;;6.35;5.75;;;7.20;99.90;;;;;;4935784;29;20189;-85
2023/12/31 12:02:06;;;;;;;6.50;5.80;;;7.30;99.90;;;;;;4935714;29;20174;-85
2023/12/31 12:04:32;;;;;;;6.20;5.60;;;7.20;99.90;;;;;;4936185;29;20181;-85
2023/12/31 12:06:58;;;;;;;6.88;6.28;;;7.20;99.90;;;;;;4936062;29;20219;-86
2023/12/31 12:09:31;;;;;;;7.40;6.70;;;7.20;99.90;;;;;;4936942;29;20272;-86
2023/12/31 12:12:05;;;;;;;7.15;6.00;;;7.20;99.90;;;;;;4938946;29;20185;-86
2023/12/31 12:14:31;;;;;;;16.25;13.90;;;7.20;99.90;;;;;;4938478;29;20201;-86
2023/12/31 12:16:58;;;;;;;10.05;7.60;;;7.10;99.90;;;;;;4938686;29;20185;-87
2023/12/31 12:19:25;;;;;;;10.25;9.07;;;7.00;99.90;;;;;;4938251;29;20217;-86
2023/12/31 12:21:54;;;;;;;10.25;9.10;;;7.00;99.90;;;;;;4939123;29;20221;-86
2023/12/31 12:24:20;;;;;;;11.88;10.68;;;7.00;99.90;;;;;;4938288;29;20297;-86
2023/12/31 12:26:49;;;;;;;12.13;10.75;;;6.90;99.90;;;;;;4939507;29;20268;-86
2023/12/31 12:29:18;;;;;;;13.93;12.63;;;6.80;99.90;;;;;;4942633;29;20284;-86
2023/12/31 12:31:46;;;;;;;8.95;7.00;;;6.70;99.90;;;;;;4942492;29;20182;-87
2023/12/31 12:34:14;;;;;;;13.13;11.48;;;6.80;99.90;;;;;;4941761;29;20221;-88
2023/12/31 12:36:41;;;;;;;13.40;12.05;;;6.70;99.90;;;;;;4942407;29;20213;-86
2023/12/31 12:39:14;;;;;;;16.23;14.18;;;6.60;99.90;;;;;;4941686;29;20197;-87
2023/12/31 12:41:43;;;;;;;12.10;10.90;;;6.70;99.90;;;;;;4942312;29;20302;-87
2023/12/31 12:44:11;;;;;;;9.20;7.22;;;6.60;99.90;;;;;;4941455;29;20205;-88
2023/12/31 12:46:36;;;;;;;6.95;6.25;;;6.60;99.90;;;;;;4942202;29;20179;-87
2023/12/31 12:49:05;;;;;;;6.32;5.72;;;6.50;99.90;;;;;;4942073;29;20284;-86
2023/12/31 12:51:33;;;;;;;7.80;6.15;;;6.50;99.90;;;;;;4941431;29;20605;-86
2023/12/31 12:54:01;;;;;;;8.98;6.63;;;6.40;99.90;;;;;;4941852;29;20237;-88
2023/12/31 12:56:27;;;;;;;7.75;6.00;;;6.30;99.90;;;;;;4942009;29;20188;-87
2023/12/31 12:58:55;;;;;;;7.93;6.60;;;6.30;99.90;;;;;;4941274;29;20269;-87
2023/12/31 13:01:21;;;;;;;9.00;8.10;;;6.20;99.90;;;;;;4941378;29;20192;-89
2023/12/31 13:03:47;;;;;;;10.27;7.32;;;6.10;99.90;;;;;;4941409;29;20182;-86
2023/12/31 13:06:13;;;;;;;8.88;7.97;;;6.20;99.90;;;;;;4941628;29;20632;-86
2023/12/31 13:08:39;;;;;;;8.10;6.93;;;6.20;99.90;;;;;;4941324;29;20201;-86
2023/12/31 13:11:05;;;;;;;8.07;6.70;;;6.20;99.90;;;;;;4940695;29;20185;-86
2023/12/31 13:13:31;;;;;;;9.43;7.32;;;6.10;99.90;;;;;;4940770;29;20259;-86